sensor_id;sensor_type;location;lat;lon;timestamp;P1;durP1;ratioP1;P2;durP2;ratioP2
29206;SDS011;16247;50.840;4.382;2024-02-23T00:08:01;3.05;;;0.95;;
29206;SDS011;16247;50.840;4.382;2024-02-23T00:10:34;2.58;;;0.85;;
29206;SDS011;16247;50.840;4.382;2024-02-23T00:13:01;6.20;;;0.93;;
29206;SDS011;16247;50.840;4.382;2024-02-23T00:15:29;1.35;;;0.60;;
29206;SDS011;16247;50.840;4.382;2024-02-23T00:18:05;8.50;;;1.17;;
29206;SDS011;16247;50.840;4.382;2024-02-23T00:20:35;3.78;;;0.90;;
29206;SDS011;16247;50.840;4.382;2024-02-23T00:23:02;4.05;;;0.50;;
29206;SDS011;16247;50.840;4.382;2024-02-23T00:25:59;2.65;;;0.73;;
29206;SDS011;16247;50.840;4.382;2024-02-23T00:28:25;2.92;;;0.57;;
29206;SDS011;16247;50.840;4.382;2024-02-23T00:30:51;4.78;;;0.90;;
29206;SDS011;16247;50.840;4.382;2024-02-23T00:33:17;1.88;;;0.60;;
29206;SDS011;16247;50.840;4.382;2024-02-23T00:35:43;2.33;;;1.13;;
29206;SDS011;16247;50.840;4.382;2024-02-23T00:38:09;2.75;;;0.60;;
29206;SDS011;16247;50.840;4.382;2024-02-23T00:40:35;5.85;;;1.35;;
29206;SDS011;16247;50.840;4.382;2024-02-23T00:43:00;2.38;;;0.80;;
29206;SDS011;16247;50.840;4.382;2024-02-23T00:45:28;7.57;;;0.80;;
29206;SDS011;16247;50.840;4.382;2024-02-23T00:47:54;6.10;;;0.60;;
29206;SDS011;16247;50.840;4.382;2024-02-23T00:50:19;2.53;;;0.60;;
29206;SDS011;16247;50.840;4.382;2024-02-23T00:52:45;3.45;;;0.95;;
29206;SDS011;16247;50.840;4.382;2024-02-23T00:55:14;2.05;;;0.50;;
29206;SDS011;16247;50.840;4.382;2024-02-23T01:13:12;3.90;;;0.57;;
29206;SDS011;16247;50.840;4.382;2024-02-23T01:15:39;5.72;;;0.70;;
29206;SDS011;16247;50.840;4.382;2024-02-23T01:18:04;4.60;;;0.70;;
29206;SDS011;16247;50.840;4.382;2024-02-23T01:20:33;1.20;;;0.40;;
29206;SDS011;16247;50.840;4.382;2024-02-23T01:23:05;6.60;;;1.35;;
29206;SDS011;16247;50.840;4.382;2024-02-23T01:25:34;2.40;;;1.13;;
29206;SDS011;16247;50.840;4.382;2024-02-23T01:28:02;3.58;;;0.80;;
29206;SDS011;16247;50.840;4.382;2024-02-23T01:30:30;2.85;;;0.98;;
29206;SDS011;16247;50.840;4.382;2024-02-23T01:33:17;3.88;;;0.82;;
29206;SDS011;16247;50.840;4.382;2024-02-23T01:35:46;3.75;;;0.70;;
29206;SDS011;16247;50.840;4.382;2024-02-23T01:38:12;4.03;;;1.08;;
29206;SDS011;16247;50.840;4.382;2024-02-23T01:40:44;5.95;;;0.70;;
29206;SDS011;16247;50.840;4.382;2024-02-23T01:43:09;3.40;;;0.77;;
29206;SDS011;16247;50.840;4.382;2024-02-23T01:45:35;5.82;;;1.23;;
29206;SDS011;16247;50.840;4.382;2024-02-23T01:48:01;3.55;;;0.90;;
29206;SDS011;16247;50.840;4.382;2024-02-23T01:50:28;3.33;;;0.65;;
29206;SDS011;16247;50.840;4.382;2024-02-23T01:52:56;7.53;;;1.20;;
29206;SDS011;16247;50.840;4.382;2024-02-23T01:55:25;3.28;;;1.02;;
29206;SDS011;16247;50.840;4.382;2024-02-23T01:57:51;3.33;;;0.68;;
29206;SDS011;16247;50.840;4.382;2024-02-23T02:00:17;3.72;;;0.98;;
29206;SDS011;16247;50.840;4.382;2024-02-23T02:02:44;6.75;;;1.00;;
29206;SDS011;16247;50.840;4.382;2024-02-23T02:05:10;5.45;;;0.85;;
29206;SDS011;16247;50.840;4.382;2024-02-23T02:07:36;2.10;;;0.82;;
29206;SDS011;16247;50.840;4.382;2024-02-23T02:10:04;6.38;;;1.05;;
29206;SDS011;16247;50.840;4.382;2024-02-23T02:12:32;5.82;;;1.13;;
29206;SDS011;16247;50.840;4.382;2024-02-23T02:14:57;5.45;;;1.15;;
29206;SDS011;16247;50.840;4.382;2024-02-23T02:19:52;6.88;;;1.05;;
29206;SDS011;16247;50.840;4.382;2024-02-23T02:22:18;3.90;;;1.10;;
29206;SDS011;16247;50.840;4.382;2024-02-23T02:24:44;5.95;;;2.03;;
29206;SDS011;16247;50.840;4.382;2024-02-23T02:27:11;3.77;;;0.80;;
29206;SDS011;16247;50.840;4.382;2024-02-23T02:29:37;3.28;;;1.08;;
29206;SDS011;16247;50.840;4.382;2024-02-23T02:32:03;8.43;;;1.20;;
29206;SDS011;16247;50.840;4.382;2024-02-23T02:34:29;3.97;;;0.90;;
29206;SDS011;16247;50.840;4.382;2024-02-23T02:36:55;10.98;;;1.25;;
29206;SDS011;16247;50.840;4.382;2024-02-23T02:39:21;10.65;;;1.30;;
29206;SDS011;16247;50.840;4.382;2024-02-23T02:41:50;5.43;;;1.23;;
29206;SDS011;16247;50.840;4.382;2024-02-23T02:44:15;10.35;;;1.95;;
29206;SDS011;16247;50.840;4.382;2024-02-23T02:46:41;7.65;;;1.40;;
29206;SDS011;16247;50.840;4.382;2024-02-23T02:49:07;12.70;;;1.60;;
29206;SDS011;16247;50.840;4.382;2024-02-23T02:51:34;9.18;;;1.35;;
29206;SDS011;16247;50.840;4.382;2024-02-23T02:54:00;10.40;;;1.75;;
29206;SDS011;16247;50.840;4.382;2024-02-23T02:56:26;9.27;;;1.90;;
29206;SDS011;16247;50.840;4.382;2024-02-23T02:58:51;8.38;;;1.65;;
29206;SDS011;16247;50.840;4.382;2024-02-23T03:01:17;6.45;;;1.50;;
29206;SDS011;16247;50.840;4.382;2024-02-23T03:03:43;9.40;;;1.65;;
29206;SDS011;16247;50.840;4.382;2024-02-23T03:06:08;8.05;;;1.98;;
29206;SDS011;16247;50.840;4.382;2024-02-23T03:08:34;7.85;;;2.00;;
29206;SDS011;16247;50.840;4.382;2024-02-23T03:11:00;7.47;;;2.08;;
29206;SDS011;16247;50.840;4.382;2024-02-23T03:13:26;8.75;;;1.80;;
29206;SDS011;16247;50.840;4.382;2024-02-23T03:15:51;9.18;;;1.65;;
29206;SDS011;16247;50.840;4.382;2024-02-23T03:18:17;4.88;;;1.88;;
29206;SDS011;16247;50.840;4.382;2024-02-23T03:20:43;10.18;;;2.58;;
29206;SDS011;16247;50.840;4.382;2024-02-23T03:23:09;5.80;;;1.60;;
29206;SDS011;16247;50.840;4.382;2024-02-23T03:25:36;6.18;;;1.23;;
29206;SDS011;16247;50.840;4.382;2024-02-23T03:28:01;5.45;;;1.60;;
29206;SDS011;16247;50.840;4.382;2024-02-23T03:30:27;7.47;;;1.90;;
29206;SDS011;16247;50.840;4.382;2024-02-23T03:32:53;5.07;;;1.67;;
29206;SDS011;16247;50.840;4.382;2024-02-23T03:35:19;9.10;;;1.88;;
29206;SDS011;16247;50.840;4.382;2024-02-23T03:37:44;5.95;;;1.50;;
29206;SDS011;16247;50.840;4.382;2024-02-23T03:40:10;11.90;;;2.40;;
29206;SDS011;16247;50.840;4.382;2024-02-23T03:42:37;7.05;;;1.98;;
29206;SDS011;16247;50.840;4.382;2024-02-23T03:45:04;7.88;;;2.30;;
29206;SDS011;16247;50.840;4.382;2024-02-23T03:47:30;13.57;;;3.08;;
29206;SDS011;16247;50.840;4.382;2024-02-23T03:49:56;8.07;;;2.75;;
29206;SDS011;16247;50.840;4.382;2024-02-23T03:52:24;6.88;;;2.65;;
29206;SDS011;16247;50.840;4.382;2024-02-23T03:54:50;8.57;;;2.38;;
29206;SDS011;16247;50.840;4.382;2024-02-23T03:57:17;6.82;;;2.08;;
29206;SDS011;16247;50.840;4.382;2024-02-23T03:59:55;9.68;;;2.33;;
29206;SDS011;16247;50.840;4.382;2024-02-23T04:02:20;7.90;;;1.77;;
29206;SDS011;16247;50.840;4.382;2024-02-23T04:04:47;7.25;;;1.90;;
29206;SDS011;16247;50.840;4.382;2024-02-23T04:07:13;10.15;;;3.65;;
29206;SDS011;16247;50.840;4.382;2024-02-23T04:09:39;9.45;;;3.10;;
29206;SDS011;16247;50.840;4.382;2024-02-23T04:12:05;12.98;;;1.98;;
29206;SDS011;16247;50.840;4.382;2024-02-23T04:14:32;10.00;;;1.77;;
29206;SDS011;16247;50.840;4.382;2024-02-23T04:17:01;11.93;;;2.72;;
29206;SDS011;16247;50.840;4.382;2024-02-23T04:19:28;6.18;;;1.60;;
29206;SDS011;16247;50.840;4.382;2024-02-23T04:21:54;9.40;;;2.45;;
29206;SDS011;16247;50.840;4.382;2024-02-23T04:24:20;7.75;;;1.75;;
29206;SDS011;16247;50.840;4.382;2024-02-23T04:26:45;6.47;;;1.70;;
29206;SDS011;16247;50.840;4.382;2024-02-23T04:29:11;8.02;;;2.25;;
29206;SDS011;16247;50.840;4.382;2024-02-23T04:31:37;8.63;;;1.85;;
29206;SDS011;16247;50.840;4.382;2024-02-23T04:34:03;8.10;;;1.55;;
29206;SDS011;16247;50.840;4.382;2024-02-23T04:36:29;9.05;;;1.70;;
29206;SDS011;16247;50.840;4.382;2024-02-23T04:38:54;4.95;;;1.70;;
29206;SDS011;16247;50.840;4.382;2024-02-23T04:41:20;9.00;;;1.85;;
29206;SDS011;16247;50.840;4.382;2024-02-23T04:43:47;7.25;;;2.13;;
29206;SDS011;16247;50.840;4.382;2024-02-23T04:46:13;9.82;;;1.70;;
29206;SDS011;16247;50.840;4.382;2024-02-23T04:48:38;7.82;;;2.05;;
29206;SDS011;16247;50.840;4.382;2024-02-23T04:51:04;13.45;;;2.42;;
29206;SDS011;16247;50.840;4.382;2024-02-23T04:53:31;8.90;;;2.42;;
29206;SDS011;16247;50.840;4.382;2024-02-23T06:15:17;17.67;;;2.15;;
29206;SDS011;16247;50.840;4.382;2024-02-23T06:29:02;7.72;;;1.42;;
29206;SDS011;16247;50.840;4.382;2024-02-23T06:31:59;5.22;;;1.02;;
29206;SDS011;16247;50.840;4.382;2024-02-23T06:36:55;10.25;;;1.52;;
29206;SDS011;16247;50.840;4.382;2024-02-23T08:15:38;7.28;;;1.38;;
29206;SDS011;16247;50.840;4.382;2024-02-23T08:18:04;6.35;;;1.95;;
29206;SDS011;16247;50.840;4.382;2024-02-23T08:20:30;6.55;;;1.67;;
29206;SDS011;16247;50.840;4.382;2024-02-23T08:22:55;9.35;;;1.67;;
